Time;durP1;ratioP1;P1;durP2;ratioP2;P2;SDS_P1;SDS_P2;PMS_P1;PMS_P2;Temp;Humidity;BMP_temperature;BMP_pressure;BME280_temperature;BME280_humidity;BME280_pressure;Samples;Min_cycle;Max_cycle;Signal;HPM_P1;HPM_P2
2020/12/20 00:01:49;;;;;;;48.00;23.50;;;;;;;1.64;79.46;101967.55;127761;1092;104432;-73
2020/12/20 00:04:19;;;;;;;47.67;22.43;;;;;;;1.65;79.62;101971.05;127802;1091;104422;-73
2020/12/20 00:06:49;;;;;;;46.00;22.07;;;;;;;1.64;79.93;101976.97;127812;1091;104589;-74
2020/12/20 00:09:23;;;;;;;48.90;23.33;;;;;;;1.62;79.54;101982.00;127785;1091;104477;-73
2020/12/20 00:11:54;;;;;;;;;;;;;;;1.59;80.32;101981.71;127814;1091;104480;-73
2020/12/20 00:14:27;;;;;;;51.70;22.47;;;;;;;1.53;79.70;101979.47;127798;1091;104407;-74
2020/12/20 00:17:05;;;;;;;47.93;22.47;;;;;;;1.48;80.12;101984.95;127811;1091;104541;-74
2020/12/20 00:19:36;;;;;;;45.77;22.23;;;;;;;1.42;80.13;101983.61;127834;1092;104414;-73
2020/12/20 00:22:09;;;;;;;47.00;23.03;;;;;;;1.39;80.04;101978.14;127846;1091;104436;-75
2020/12/20 00:24:39;;;;;;;46.83;22.87;;;;;;;1.37;80.31;101979.69;127815;1091;104599;-75
2020/12/20 00:27:10;;;;;;;50.97;22.90;;;;;;;1.37;80.15;101979.69;127795;1091;104501;-73
2020/12/20 00:29:40;;;;;;;49.03;23.03;;;;;;;1.37;80.16;101977.09;127846;1092;104431;-72
2020/12/20 00:32:12;;;;;;;48.97;24.00;;;;;;;1.39;80.09;101967.80;127800;1092;104471;-73
2020/12/20 00:34:42;;;;;;;46.80;24.13;;;;;;;1.44;80.49;101969.14;127853;1092;104419;-74
2020/12/20 00:37:11;;;;;;;45.37;23.37;;;;;;;1.51;80.33;101973.25;127812;1091;104420;-74
2020/12/20 00:39:40;;;;;;;51.30;24.97;;;;;;;1.53;80.38;101971.70;127802;1091;104410;-73
2020/12/20 00:42:09;;;;;;;47.53;24.37;;;;;;;1.55;80.65;101974.44;127817;1091;104481;-74
2020/12/20 00:44:39;;;;;;;49.33;24.00;;;;;;;1.56;80.03;101981.45;127804;1091;104602;-72
2020/12/20 00:47:09;;;;;;;51.07;25.20;;;;;;;1.54;80.39;101977.78;127837;1092;104490;-71
2020/12/20 00:49:38;;;;;;;49.07;23.87;;;;;;;1.47;80.33;101977.98;127814;1091;104624;-72
2020/12/20 00:52:08;;;;;;;45.33;22.67;;;;;;;1.40;79.96;101976.45;127786;1091;104404;-72
2020/12/20 00:54:38;;;;;;;49.83;23.53;;;;;;;1.33;80.43;101985.31;127820;1092;104420;-72
2020/12/20 00:57:08;;;;;;;48.70;24.57;;;;;;;1.28;80.11;101978.80;127822;1091;104475;-72
2020/12/20 00:59:37;;;;;;;46.03;22.73;;;;;;;1.25;80.05;101981.09;127861;1091;104414;-72
2020/12/20 01:02:06;;;;;;;44.83;22.87;;;;;;;1.23;80.20;101980.00;127790;1091;104580;-73
2020/12/20 01:04:35;;;;;;;46.60;23.90;;;;;;;1.20;79.95;101982.29;127691;1092;104496;-72
2020/12/20 01:07:05;;;;;;;45.07;22.67;;;;;;;1.12;80.17;101980.64;127681;1092;104958;-74
2020/12/20 01:09:36;;;;;;;49.07;23.23;;;;;;;1.08;80.46;101982.03;127750;1091;104430;-73
2020/12/20 01:12:05;;;;;;;46.47;22.97;;;;;;;1.03;79.84;101972.92;127822;1092;104484;-74
2020/12/20 01:14:54;;;;;;;44.87;22.47;;;;;;;1.00;80.19;101973.53;127798;1091;104551;-72
2020/12/20 01:17:23;;;;;;;46.73;22.83;;;;;;;1.00;79.93;101976.11;127793;1091;104548;-72
2020/12/20 01:19:52;;;;;;;44.20;21.40;;;;;;;1.03;80.42;101979.00;127806;1091;104480;-73
2020/12/20 01:22:22;;;;;;;43.20;21.77;;;;;;;1.06;80.08;101976.71;127818;1091;104539;-73
2020/12/20 01:24:51;;;;;;;46.60;23.30;;;;;;;1.11;80.75;101976.23;127816;1091;105114;-73
2020/12/20 01:27:20;;;;;;;51.97;24.13;;;;;;;1.15;80.40;101973.19;127826;1092;104566;-73
2020/12/20 01:29:49;;;;;;;48.27;22.80;;;;;;;1.17;80.64;101974.23;127806;1091;104468;-73
2020/12/20 01:32:19;;;;;;;47.87;23.37;;;;;;;1.18;80.40;101976.07;127788;1092;104481;-74
2020/12/20 01:34:51;;;;;;;44.80;22.65;;;;;;;1.14;80.10;101974.88;127799;1091;104618;-73
2020/12/20 01:37:20;;;;;;;48.17;22.07;;;;;;;1.13;79.97;101977.31;127829;1091;104545;-72
2020/12/20 01:39:52;;;;;;;50.40;23.80;;;;;;;1.17;80.81;101979.41;127819;1091;104426;-73
2020/12/20 01:42:21;;;;;;;47.60;23.20;;;;;;;1.21;80.65;101978.95;127800;1092;104481;-73
2020/12/20 01:44:54;;;;;;;44.37;22.60;;;;;;;1.19;80.17;101973.63;127828;1091;104430;-73
2020/12/20 01:47:33;;;;;;;49.20;23.80;;;;;;;1.17;80.84;101979.41;127807;1092;104410;-73
2020/12/20 01:50:09;;;;;;;51.27;23.20;;;;;;;1.08;80.36;101980.34;127847;1092;104422;-73
2020/12/20 01:52:38;;;;;;;49.23;23.80;;;;;;;1.00;80.31;101975.21;127820;1092;104611;-73
2020/12/20 01:55:09;;;;;;;50.57;21.77;;;;;;;0.94;80.00;101982.37;127777;1091;104595;-72
2020/12/20 01:57:55;;;;;;;50.50;22.77;;;;;;;0.89;79.96;101975.06;127790;1091;104391;-72
2020/12/20 02:00:43;;;;;;;47.67;22.00;;;;;;;0.85;80.36;101982.36;127816;1092;104555;-74
2020/12/20 02:03:24;;;;;;;49.60;23.10;;;;;;;0.81;79.95;101981.16;127800;1092;104505;-73
2020/12/20 02:05:54;;;;;;;49.00;22.90;;;;;;;0.76;80.24;101984.94;127845;1092;104574;-73
2020/12/20 02:08:25;;;;;;;49.30;22.67;;;;;;;0.71;80.49;101988.75;127751;1091;104487;-75
2020/12/20 02:11:07;;;;;;;51.10;22.83;;;;;;;0.66;80.09;101988.30;127832;1092;104599;-73
2020/12/20 02:13:41;;;;;;;50.03;23.73;;;;;;;0.63;80.34;101989.67;127830;1091;104817;-74
2020/12/20 02:16:13;;;;;;;49.33;22.87;;;;;;;0.62;80.50;101991.32;127822;1092;104443;-74
2020/12/20 02:18:48;;;;;;;48.17;21.97;;;;;;;0.68;80.48;101988.45;127821;1092;104410;-72
2020/12/20 02:21:22;;;;;;;48.43;22.97;;;;;;;0.70;80.52;101982.69;127773;1091;104480;-72
2020/12/20 02:23:55;;;;;;;51.00;23.43;;;;;;;0.69;80.25;101988.59;127845;1092;104414;-73
2020/12/20 02:26:30;;;;;;;44.70;20.97;;;;;;;0.64;80.61;101994.99;127808;1091;104414;-72
2020/12/20 02:29:00;;;;;;;54.60;24.47;;;;;;;0.56;80.33;102000.14;127821;1092;104429;-73
2020/12/20 02:31:31;;;;;;;48.00;21.17;;;;;;;0.48;80.25;101994.21;127781;1091;104490;-72
2020/12/20 02:34:04;;;;;;;51.43;23.17;;;;;;;0.42;80.29;101998.77;127783;1091;104541;-72
2020/12/20 02:36:34;;;;;;;52.77;24.53;;;;;;;0.38;80.35;101994.07;127785;1091;104410;-73
2020/12/20 02:39:08;;;;;;;52.27;24.20;;;;;;;0.38;80.39;101999.23;127779;1092;104410;-73
2020/12/20 02:41:45;;;;;;;52.47;23.70;;;;;;;0.32;80.32;102003.00;127829;1091;104416;-73
2020/12/20 02:44:15;;;;;;;52.53;23.40;;;;;;;0.27;80.52;102001.63;127799;1092;104699;-72
2020/12/20 02:46:48;;;;;;;46.13;20.53;;;;;;;0.25;80.34;102009.97;127770;1091;104431;-72
2020/12/20 02:49:24;;;;;;;49.53;23.10;;;;;;;0.18;80.29;102003.28;127809;1091;104474;-74
2020/12/20 02:51:56;;;;;;;48.10;22.43;;;;;;;0.15;80.55;102009.04;127835;1092;104433;-74
2020/12/20 02:54:25;;;;;;;47.83;21.47;;;;;;;0.12;80.54;102006.14;127814;1091;104541;-73
2020/12/20 02:56:54;;;;;;;48.07;21.37;;;;;;;0.10;80.62;101999.02;127811;1091;104557;-73
2020/12/20 02:59:42;;;;;;;49.90;23.00;;;;;;;0.13;80.67;102005.40;127783;1092;104481;-74
2020/12/20 03:02:12;;;;;;;47.83;21.47;;;;;;;0.14;80.79;101996.91;127779;1091;104544;-73
2020/12/20 03:04:43;;;;;;;51.30;22.73;;;;;;;0.16;80.89;101997.06;127784;1091;104477;-73
2020/12/20 03:07:13;;;;;;;51.93;23.63;;;;;;;0.17;80.93;101993.70;127799;1091;104414;-72
2020/12/20 03:09:42;;;;;;;50.70;22.27;;;;;;;0.20;80.91;102004.34;127811;1091;104410;-74
2020/12/20 03:12:12;;;;;;;48.83;21.40;;;;;;;0.21;80.75;102006.17;127784;1091;104432;-73
2020/12/20 03:14:40;;;;;;;47.60;21.27;;;;;;;0.21;80.82;102011.34;127780;1091;104433;-72
2020/12/20 03:17:11;;;;;;;47.30;20.27;;;;;;;0.17;80.49;102015.30;127764;1091;104410;-74
2020/12/20 03:19:40;;;;;;;48.33;20.43;;;;;;;0.15;80.69;102013.30;127834;1091;104414;-74
2020/12/20 03:22:11;;;;;;;46.13;21.30;;;;;;;0.13;80.58;102012.24;127828;1091;104558;-73
2020/12/20 03:24:56;;;;;;;44.00;20.53;;;;;;;0.11;81.11;102016.31;127782;1091;104473;-73
2020/12/20 03:27:43;;;;;;;46.33;20.47;;;;;;;0.10;80.95;102024.84;127831;1091;104515;-74
2020/12/20 03:30:23;;;;;;;47.73;21.03;;;;;;;0.09;80.68;102031.64;127800;1091;104385;-73
2020/12/20 03:33:02;;;;;;;43.57;19.67;;;;;;;0.09;80.94;102030.75;127859;1091;104423;-73
2020/12/20 03:35:42;;;;;;;45.33;19.03;;;;;;;0.09;80.86;102030.75;127810;1091;104548;-75
2020/12/20 03:38:13;;;;;;;43.83;18.27;;;;;;;0.07;80.94;102025.42;127759;1092;106099;-72
2020/12/20 03:40:45;;;;;;;44.73;19.47;;;;;;;0.08;81.23;102024.68;127807;1092;104542;-73
2020/12/20 03:43:16;;;;;;;42.23;18.73;;;;;;;0.05;80.66;102033.76;127794;1091;104419;-73
2020/12/20 03:45:59;;;;;;;45.27;19.80;;;;;;;0.02;80.75;102033.44;127833;1092;104539;-73
2020/12/20 03:48:40;;;;;;;44.00;19.53;;;;;;;0.01;81.31;102032.54;127826;1091;104586;-73
2020/12/20 03:51:11;;;;;;;42.97;19.57;;;;;;;0.01;80.63;102032.54;127778;1091;104478;-72
2020/12/20 03:53:44;;;;;;;41.23;18.07;;;;;;;0.00;80.70;102035.91;127843;1091;104413;-72
2020/12/20 03:56:16;;;;;;;44.33;19.50;;;;;;;0.01;80.82;102031.64;127790;1091;104410;-74
2020/12/20 03:58:49;;;;;;;;;;;;;;;0.03;80.95;102035.28;127885;1091;104416;-73
2020/12/20 04:01:19;;;;;;;45.00;19.57;;;;;;;0.04;81.04;102043.18;127836;1092;105326;-74
2020/12/20 04:03:50;;;;;;;45.10;19.80;;;;;;;0.06;81.05;102045.92;127790;1091;104990;-74
2020/12/20 04:06:19;;;;;;;44.67;20.07;;;;;;;0.06;80.96;102045.92;127821;1091;104416;-73
2020/12/20 04:08:49;;;;;;;47.87;20.07;;;;;;;0.04;81.11;102042.28;127772;1092;104449;-74
2020/12/20 04:11:31;;;;;;;46.77;20.20;;;;;;;0.02;80.84;102049.86;127764;1091;104423;-74
2020/12/20 04:14:00;;;;;;;49.23;21.33;;;;;;;0.05;80.74;102055.34;127803;1091;104446;-74
2020/12/20 04:16:30;;;;;;;46.45;21.45;;;;;;;0.09;80.93;102049.71;127781;1092;104496;-73
2020/12/20 04:18:59;;;;;;;44.77;19.97;;;;;;;0.15;80.93;102049.44;127800;1091;104420;-73
2020/12/20 04:21:28;;;;;;;44.97;19.87;;;;;;;0.25;80.94;102048.70;127783;1091;104541;-73
2020/12/20 04:23:57;;;;;;;39.93;18.60;;;;;;;0.29;81.37;102056.91;127847;1092;104400;-73
2020/12/20 04:26:28;;;;;;;34.70;16.17;;;;;;;0.28;81.06;102054.17;127806;1092;104541;-74
2020/12/20 04:29:17;;;;;;;41.23;17.20;;;;;;;0.26;80.95;102050.53;127782;1092;104429;-74
2020/12/20 04:31:49;;;;;;;41.47;17.23;;;;;;;0.26;81.08;102066.93;127813;1091;104478;-72
2020/12/20 04:34:21;;;;;;;41.90;18.60;;;;;;;0.28;80.94;102062.86;127717;1092;104657;-73
2020/12/20 04:36:50;;;;;;;38.83;18.10;;;;;;;0.31;80.78;102060.59;127665;1092;104580;-74
2020/12/20 04:39:33;;;;;;;39.00;16.63;;;;;;;0.34;81.10;102066.06;127615;1092;103125;-76
2020/12/20 04:42:03;;;;;;;39.67;17.57;;;;;;;0.31;80.79;102070.92;127600;1091;104554;-75
2020/12/20 04:44:34;;;;;;;41.23;19.20;;;;;;;0.30;81.13;102079.41;127800;1093;104435;-73
2020/12/20 04:47:08;;;;;;;39.63;17.62;;;;;;;0.32;80.82;102077.89;127751;1091;104608;-74
2020/12/20 04:49:44;;;;;;;40.10;17.90;;;;;;;0.34;81.21;102078.98;127736;1092;104433;-73
2020/12/20 04:52:19;;;;;;;41.07;18.73;;;;;;;0.38;81.21;102077.61;127789;1091;104541;-75
2020/12/20 04:54:48;;;;;;;42.93;17.63;;;;;;;0.42;81.08;102068.49;127716;1091;104531;-74
2020/12/20 04:57:34;;;;;;;39.53;17.10;;;;;;;0.45;81.15;102074.91;127803;1093;104365;-77
2020/12/20 05:00:06;;;;;;;40.00;17.77;;;;;;;0.45;80.90;102077.48;127816;1091;106049;-73
2020/12/20 05:02:36;;;;;;;44.83;20.60;;;;;;;0.49;81.20;102081.28;127838;1091;104410;-74
2020/12/20 05:05:05;;;;;;;38.67;18.30;;;;;;;0.59;81.24;102075.36;127816;1091;104458;-74
2020/12/20 05:07:36;;;;;;;41.90;19.27;;;;;;;0.69;81.53;102075.55;127811;1091;104858;-74
2020/12/20 05:10:06;;;;;;;40.97;19.20;;;;;;;0.77;81.19;102081.48;127813;1092;104411;-74
2020/12/20 05:12:41;;;;;;;42.90;19.30;;;;;;;0.83;81.19;102082.09;127821;1091;104404;-73
2020/12/20 05:15:25;;;;;;;40.10;18.83;;;;;;;0.87;81.71;102086.80;127839;1091;104408;-75
2020/12/20 05:18:09;;;;;;;39.20;18.67;;;;;;;0.82;81.20;102094.09;127807;1092;104416;-72
2020/12/20 05:20:44;;;;;;;41.80;18.13;;;;;;;0.81;81.20;102097.45;127756;1091;104436;-72
2020/12/20 05:23:17;;;;;;;39.43;17.57;;;;;;;0.80;81.29;102095.61;127815;1091;104494;-74
2020/12/20 05:25:46;;;;;;;41.83;16.80;;;;;;;0.79;80.78;102095.46;127276;1094;104564;-72
2020/12/20 05:28:19;;;;;;;37.90;17.67;;;;;;;0.80;81.38;102098.20;127771;1091;104551;-73
2020/12/20 05:30:52;;;;;;;36.50;17.60;;;;;;;0.81;81.34;102109.44;127749;1091;104701;-75
2020/12/20 05:33:34;;;;;;;35.93;17.27;;;;;;;0.81;81.36;102096.52;127689;1092;104491;-73
2020/12/20 05:36:10;;;;;;;41.03;19.17;;;;;;;0.81;81.50;102110.38;127743;1091;104455;-73
2020/12/20 05:38:40;;;;;;;43.67;19.73;;;;;;;0.83;81.54;102111.42;127767;1091;104787;-74
2020/12/20 05:41:10;;;;;;;39.57;17.93;;;;;;;0.91;81.55;102114.78;127680;1094;104422;-72
2020/12/20 05:43:40;;;;;;;41.87;18.03;;;;;;;0.99;81.43;102112.97;127674;1091;104498;-73
2020/12/20 05:46:25;;;;;;;39.53;17.37;;;;;;;1.05;81.09;102116.16;127534;1091;104407;-73
2020/12/20 05:49:14;;;;;;;39.77;19.00;;;;;;;1.09;81.41;102107.93;127518;1092;104593;-74
2020/12/20 05:52:02;;;;;;;41.30;19.07;;;;;;;1.16;81.10;102114.65;127602;1091;104440;-73
2020/12/20 05:54:41;;;;;;;42.23;18.93;;;;;;;1.19;80.91;102118.44;127896;1091;104538;-73
2020/12/20 05:57:13;;;;;;;42.47;18.67;;;;;;;1.22;81.52;102120.43;127603;1091;104855;-74
2020/12/20 05:59:44;;;;;;;39.60;17.80;;;;;;;1.28;81.15;102122.69;127653;1091;104631;-72
2020/12/20 06:02:14;;;;;;;39.57;17.63;;;;;;;1.33;81.10;102121.49;127800;1091;104433;-74
2020/12/20 06:04:44;;;;;;;39.97;18.60;;;;;;;1.40;80.90;102129.08;127754;1091;104413;-73
2020/12/20 06:07:15;;;;;;;41.33;18.53;;;;;;;1.46;81.60;102126.19;127784;1092;104422;-73
2020/12/20 06:09:55;;;;;;;41.37;19.53;;;;;;;1.50;81.24;102128.33;127801;1091;104474;-73
2020/12/20 06:12:27;;;;;;;40.87;19.13;;;;;;;1.54;81.21;102133.02;127744;1092;104987;-73
2020/12/20 06:14:59;;;;;;;40.70;18.65;;;;;;;1.53;81.12;102126.95;127778;1092;104423;-72
2020/12/20 06:17:29;;;;;;;38.87;19.53;;;;;;;1.55;81.42;102129.68;127528;1092;104459;-75
2020/12/20 06:20:00;;;;;;;43.23;19.20;;;;;;;1.58;80.69;102130.88;127617;1091;104414;-73
2020/12/20 06:22:32;;;;;;;39.45;17.65;;;;;;;1.66;81.23;102139.39;127796;1091;104726;-74
2020/12/20 06:25:04;;;;;;;39.90;17.67;;;;;;;1.74;81.46;102137.55;127701;1091;104427;-72
2020/12/20 06:27:36;;;;;;;41.67;18.87;;;;;;;1.78;81.79;102134.52;127697;1091;104419;-74
2020/12/20 06:30:07;;;;;;;40.40;19.07;;;;;;;1.82;81.75;102136.61;127780;1092;104542;-72
2020/12/20 06:32:45;;;;;;;44.30;20.50;;;;;;;1.86;80.77;102132.67;127809;1091;104455;-73
2020/12/20 06:35:22;;;;;;;45.23;20.63;;;;;;;1.88;81.54;102132.03;127819;1092;104573;-72
2020/12/20 06:38:13;;;;;;;41.53;18.50;;;;;;;1.86;80.98;102143.03;127782;1091;104426;-73
2020/12/20 06:40:44;;;;;;;37.60;18.43;;;;;;;1.85;81.01;102138.59;127824;1092;104414;-73
2020/12/20 06:43:13;;;;;;;41.07;18.60;;;;;;;1.86;81.42;102135.26;127811;1091;104407;-73
2020/12/20 06:45:45;;;;;;;40.33;19.13;;;;;;;1.87;80.64;102130.23;127812;1091;104410;-73
2020/12/20 06:48:14;;;;;;;42.93;17.80;;;;;;;1.93;81.20;102140.24;127831;1091;104564;-73
2020/12/20 06:50:49;;;;;;;37.57;17.57;;;;;;;1.96;81.24;102135.36;127795;1091;104494;-72
2020/12/20 06:53:19;;;;;;;47.93;20.00;;;;;;;2.03;81.81;102139.48;127765;1092;104525;-73
2020/12/20 06:55:48;;;;;;;43.83;19.07;;;;;;;2.05;81.28;102137.94;127793;1092;104485;-73
2020/12/20 06:58:19;;;;;;;47.70;19.27;;;;;;;2.07;81.18;102139.92;127786;1091;104525;-73
2020/12/20 07:00:50;;;;;;;37.13;17.67;;;;;;;2.07;81.33;102136.39;127814;1091;104407;-73
2020/12/20 07:03:40;;;;;;;40.93;18.33;;;;;;;2.08;81.19;102146.00;127737;1092;104541;-73
2020/12/20 07:06:18;;;;;;;42.10;18.77;;;;;;;2.07;80.51;102142.51;127754;1092;104465;-73
2020/12/20 07:08:59;;;;;;;37.03;16.83;;;;;;;2.06;80.87;102142.36;127743;1091;104407;-74
2020/12/20 07:11:29;;;;;;;42.03;17.27;;;;;;;2.06;81.57;102142.36;127818;1091;104490;-73
2020/12/20 07:14:15;;;;;;;37.87;16.60;;;;;;;2.06;80.96;102144.95;127771;1092;104564;-73
2020/12/20 07:16:44;;;;;;;39.27;18.73;;;;;;;2.07;81.04;102149.34;127686;1092;104506;-73
2020/12/20 07:19:22;;;;;;;35.60;17.03;;;;;;;2.08;81.03;102152.08;127828;1093;104573;-73
2020/12/20 07:22:01;;;;;;;39.60;17.77;;;;;;;2.06;81.35;102145.85;127799;1091;104414;-71
2020/12/20 07:24:33;;;;;;;42.00;19.80;;;;;;;2.06;80.95;102143.27;127806;1091;104481;-71
2020/12/20 07:27:05;;;;;;;42.17;17.63;;;;;;;2.08;81.18;102152.08;127792;1091;104590;-73
2020/12/20 07:29:37;;;;;;;38.43;17.20;;;;;;;2.10;80.56;102154.81;127683;1091;104407;-74
2020/12/20 07:32:08;;;;;;;41.63;17.97;;;;;;;2.14;81.64;102156.95;127763;1091;104541;-75
2020/12/20 07:34:39;;;;;;;36.40;17.03;;;;;;;2.15;81.00;102154.51;127828;1091;104423;-72
2020/12/20 07:37:12;;;;;;;40.03;18.43;;;;;;;2.18;81.13;102159.05;127788;1092;104440;-72
2020/12/20 07:39:41;;;;;;;35.00;17.33;;;;;;;2.15;81.10;102161.34;127801;1093;104449;-76
2020/12/20 07:42:10;;;;;;;39.60;17.97;;;;;;;2.14;81.30;102163.03;127688;1091;104416;-74
2020/12/20 07:44:45;;;;;;;39.40;17.50;;;;;;;2.14;80.89;102167.31;127562;1092;104448;-74
2020/12/20 07:47:16;;;;;;;41.83;18.43;;;;;;;2.15;81.33;102170.05;128003;1091;104435;-74
2020/12/20 07:49:45;;;;;;;33.50;16.40;;;;;;;2.19;80.79;102170.34;127727;1092;104456;-74
2020/12/20 07:52:15;;;;;;;35.60;16.37;;;;;;;2.24;81.22;102169.09;127689;1092;104410;-74
2020/12/20 07:54:44;;;;;;;36.00;17.07;;;;;;;2.29;81.45;102173.03;127675;1091;104494;-73
2020/12/20 07:57:19;;;;;;;42.30;19.10;;;;;;;2.32;80.67;102175.91;127731;1091;104407;-73
2020/12/20 07:59:47;;;;;;;40.70;17.60;;;;;;;2.35;81.26;102181.39;127749;1092;104432;-73
2020/12/20 08:02:22;;;;;;;33.97;15.67;;;;;;;2.36;81.25;102180.63;127623;1092;104484;-74
2020/12/20 08:05:03;;;;;;;38.10;16.77;;;;;;;2.38;80.68;102179.09;127784;1091;104478;-75
2020/12/20 08:07:32;;;;;;;41.10;16.20;;;;;;;2.41;80.90;102171.61;127787;1091;104410;-73
2020/12/20 08:10:01;;;;;;;40.13;17.50;;;;;;;2.46;80.89;102179.82;127787;1091;104414;-73
2020/12/20 08:12:32;;;;;;;37.20;17.47;;;;;;;2.54;80.70;102175.37;127687;1091;104430;-73
2020/12/20 08:15:05;;;;;;;41.57;18.60;;;;;;;2.62;81.44;102175.34;127747;1091;104480;-72
2020/12/20 08:17:37;;;;;;;44.20;18.13;;;;;;;2.69;80.87;102169.04;127757;1092;104541;-72
2020/12/20 08:20:07;;;;;;;39.77;19.00;;;;;;;2.75;81.25;102172.21;127789;1091;104461;-73
2020/12/20 08:22:37;;;;;;;38.33;17.67;;;;;;;2.79;80.86;102169.15;127701;1092;104432;-71
2020/12/20 08:25:11;;;;;;;40.13;17.80;;;;;;;2.85;81.05;102171.38;127773;1091;104404;-73
2020/12/20 08:27:44;;;;;;;42.33;18.00;;;;;;;2.88;80.93;102177.79;127770;1091;104410;-73
2020/12/20 08:30:14;;;;;;;33.17;13.93;;;;;;;2.93;81.14;102179.88;127817;1092;104477;-72
2020/12/20 08:32:44;;;;;;;37.83;16.80;;;;;;;2.97;80.59;102179.41;127731;1091;104506;-77
2020/12/20 08:35:20;;;;;;;37.70;18.00;;;;;;;3.02;81.10;102172.95;127668;1091;104407;-74
2020/12/20 08:38:00;;;;;;;41.53;19.20;;;;;;;3.08;80.94;102170.03;127653;1091;104426;-76
2020/12/20 08:40:34;;;;;;;40.00;18.43;;;;;;;3.14;81.00;102171.50;127755;1092;104439;-76
2020/12/20 08:43:05;;;;;;;35.97;16.73;;;;;;;3.19;80.47;102182.30;127692;1091;104430;-75
2020/12/20 08:45:39;;;;;;;42.33;18.90;;;;;;;3.22;81.29;102182.58;127537;1091;104445;-74
2020/12/20 08:48:08;;;;;;;39.83;17.33;;;;;;;3.27;80.72;102180.41;127580;1091;104436;-75
2020/12/20 08:50:36;;;;;;;37.57;17.20;;;;;;;3.32;81.27;102181.73;127730;1092;104461;-73
2020/12/20 08:53:09;;;;;;;41.83;19.03;;;;;;;3.38;80.88;102182.30;127786;1092;104404;-73
2020/12/20 08:55:38;;;;;;;41.03;18.97;;;;;;;3.44;80.48;102182.86;127657;1091;104849;-74
2020/12/20 08:58:09;;;;;;;44.17;19.60;;;;;;;3.47;80.72;102182.23;127647;1091;104475;-74
2020/12/20 09:00:38;;;;;;;38.40;18.25;;;;;;;3.51;80.28;102182.66;127801;1091;104437;-73
2020/12/20 09:03:08;;;;;;;42.13;19.10;;;;;;;3.52;80.67;102183.56;127664;1091;104432;-74
2020/12/20 09:05:37;;;;;;;31.83;14.43;;;;;;;3.53;80.64;102175.02;127679;1091;104484;-75
2020/12/20 09:08:06;;;;;;;41.87;18.67;;;;;;;3.53;80.72;102173.31;127728;1092;104576;-72
2020/12/20 09:10:36;;;;;;;41.80;18.00;;;;;;;3.59;81.00;102176.47;127639;1092;104647;-74
2020/12/20 09:13:08;;;;;;;40.33;17.27;;;;;;;3.68;80.28;102180.70;127644;1091;104417;-74
2020/12/20 09:15:39;;;;;;;37.30;17.27;;;;;;;3.73;80.30;102177.72;127780;1091;104439;-73
2020/12/20 09:18:17;;;;;;;37.93;17.43;;;;;;;3.78;80.32;102167.75;127762;1091;104437;-73
2020/12/20 09:20:47;;;;;;;40.17;17.40;;;;;;;3.84;80.34;102172.59;127812;1091;104442;-73
2020/12/20 09:23:19;;;;;;;44.57;17.83;;;;;;;3.86;80.30;102166.73;127771;1091;104408;-73
2020/12/20 09:25:49;;;;;;;34.60;15.90;;;;;;;3.89;80.17;102167.01;127856;1092;104445;-73
2020/12/20 09:28:24;;;;;;;45.73;19.13;;;;;;;3.94;80.22;102164.83;127561;1091;104439;-75
2020/12/20 09:30:56;;;;;;;38.70;18.20;;;;;;;4.03;80.42;102164.74;127758;1091;104433;-73
2020/12/20 09:33:28;;;;;;;40.67;18.40;;;;;;;4.07;80.85;102161.66;127838;1091;104468;-73
2020/12/20 09:36:01;;;;;;;39.83;17.77;;;;;;;4.11;79.98;102159.46;127760;1091;104472;-75
2020/12/20 09:38:38;;;;;;;33.90;16.37;;;;;;;4.16;80.10;102164.12;127733;1092;104474;-73
2020/12/20 09:41:09;;;;;;;46.90;20.70;;;;;;;4.20;80.32;102159.34;127686;1091;104557;-73
2020/12/20 09:43:40;;;;;;;40.70;18.27;;;;;;;4.26;80.64;102145.98;127695;1092;104596;-74
2020/12/20 09:46:10;;;;;;;44.27;20.00;;;;;;;4.30;80.93;102146.39;127679;1091;104576;-74
2020/12/20 09:48:39;;;;;;;42.77;20.27;;;;;;;4.35;80.14;102148.45;127576;1091;104442;-76
2020/12/20 09:51:08;;;;;;;44.77;19.93;;;;;;;4.38;80.57;102152.26;127730;1091;104599;-72
2020/12/20 09:53:38;;;;;;;40.53;18.40;;;;;;;4.39;80.28;102148.86;127748;1091;104416;-72
2020/12/20 09:56:07;;;;;;;45.73;18.53;;;;;;;4.41;80.13;102148.98;127724;1091;104494;-75
2020/12/20 09:58:36;;;;;;;39.50;17.63;;;;;;;4.48;79.87;102156.55;127747;1092;104430;-74
2020/12/20 10:01:05;;;;;;;35.83;17.77;;;;;;;4.49;80.39;102142.80;127667;1092;104531;-72
2020/12/20 10:03:34;;;;;;;44.13;18.93;;;;;;;4.51;79.94;102154.22;127772;1092;104475;-71
2020/12/20 10:06:03;;;;;;;42.03;19.77;;;;;;;4.48;79.98;102144.45;127749;1091;104464;-74
2020/12/20 10:08:32;;;;;;;46.10;19.53;;;;;;;4.48;80.11;102148.76;127671;1091;104410;-73
2020/12/20 10:11:01;;;;;;;46.00;20.87;;;;;;;4.49;80.44;102142.80;127625;1091;104439;-73
2020/12/20 10:13:30;;;;;;;45.83;21.90;;;;;;;4.57;79.73;102141.75;127720;1091;104913;-72
2020/12/20 10:15:59;;;;;;;46.27;21.50;;;;;;;4.62;80.57;102144.75;127646;1091;104475;-74
2020/12/20 10:18:28;;;;;;;45.50;21.47;;;;;;;4.64;80.64;102137.98;127761;1091;104416;-73
2020/12/20 10:20:58;;;;;;;46.30;19.50;;;;;;;4.62;80.38;102140.45;127758;1092;104401;-73
2020/12/20 10:23:29;;;;;;;48.03;21.83;;;;;;;4.64;80.27;102138.91;127798;1092;104410;-73
2020/12/20 10:25:58;;;;;;;47.45;20.75;;;;;;;4.66;80.02;102134.75;127786;1091;104410;-74
2020/12/20 10:28:27;;;;;;;42.83;21.30;;;;;;;4.73;80.49;102132.67;127770;1092;104538;-73
2020/12/20 10:30:56;;;;;;;40.43;18.77;;;;;;;4.74;80.10;102127.59;127734;1091;104862;-75
2020/12/20 10:33:25;;;;;;;43.20;20.90;;;;;;;4.77;80.03;102127.86;127765;1091;104532;-73
2020/12/20 10:35:54;;;;;;;47.37;21.13;;;;;;;4.80;80.39;102121.98;127744;1092;104406;-73
2020/12/20 10:38:23;;;;;;;47.67;21.70;;;;;;;4.81;80.49;102118.62;127760;1092;104419;-74
2020/12/20 10:40:51;;;;;;;49.77;22.10;;;;;;;4.84;80.36;102121.48;127749;1091;104541;-74
2020/12/20 10:43:20;;;;;;;46.97;22.10;;;;;;;4.89;80.35;102125.37;127694;1091;104423;-75
2020/12/20 10:45:49;;;;;;;48.47;21.37;;;;;;;4.95;80.10;102118.08;127749;1092;104430;-73
2020/12/20 10:48:18;;;;;;;52.93;23.30;;;;;;;5.02;80.04;102115.23;127833;1091;104567;-73
2020/12/20 10:50:47;;;;;;;49.45;22.80;;;;;;;5.05;80.21;102111.98;127765;1091;104538;-73
2020/12/20 10:53:16;;;;;;;49.10;23.47;;;;;;;5.06;80.37;102102.48;127787;1091;104403;-73
2020/12/20 10:55:45;;;;;;;52.60;22.60;;;;;;;5.08;80.22;102106.11;127779;1091;104859;-74
2020/12/20 10:58:15;;;;;;;50.63;21.73;;;;;;;5.08;79.85;102106.11;127863;1091;104420;-73
2020/12/20 11:00:43;;;;;;;51.10;23.70;;;;;;;5.07;80.05;102105.20;127792;1091;104586;-72
2020/12/20 11:03:12;;;;;;;49.53;21.77;;;;;;;5.09;79.88;102101.03;127782;1091;104525;-73
2020/12/20 11:05:41;;;;;;;51.53;23.70;;;;;;;5.09;79.85;102105.34;127606;1092;104407;-73
2020/12/20 11:08:10;;;;;;;51.13;23.67;;;;;;;5.12;80.03;102098.69;127622;1091;104977;-74
2020/12/20 11:10:39;;;;;;;52.67;24.37;;;;;;;5.15;79.79;102103.24;127707;1091;104423;-72
2020/12/20 11:13:08;;;;;;;49.67;23.63;;;;;;;5.17;79.92;102096.46;127765;1092;104403;-72
2020/12/20 11:15:37;;;;;;;50.63;24.27;;;;;;;5.20;79.79;102082.04;127635;1092;104378;-75
2020/12/20 11:18:06;;;;;;;45.20;21.00;;;;;;;5.25;80.16;102094.50;127786;1091;104477;-72
2020/12/20 11:20:35;;;;;;;53.87;24.47;;;;;;;5.27;79.89;102086.05;127685;1092;104420;-74
2020/12/20 11:23:05;;;;;;;52.33;23.37;;;;;;;5.30;79.89;102088.90;127716;1091;104535;-72
2020/12/20 11:25:34;;;;;;;56.07;24.80;;;;;;;5.32;79.59;102089.92;127758;1091;104618;-72